sensor_id;sensor_type;location;lat;lon;timestamp;P1;durP1;ratioP1;P2;durP2;ratioP2
28910;SDS011;16028;42.642;23.310;2023-10-08T00:02:15;10.38;;;4.50;;
28910;SDS011;16028;42.642;23.310;2023-10-08T00:04:48;8.50;;;4.63;;
28910;SDS011;16028;42.642;23.310;2023-10-08T00:07:17;7.47;;;4.30;;
28910;SDS011;16028;42.642;23.310;2023-10-08T00:09:46;8.45;;;4.47;;
28910;SDS011;16028;42.642;23.310;2023-10-08T00:12:16;8.75;;;4.20;;
28910;SDS011;16028;42.642;23.310;2023-10-08T00:14:44;8.45;;;4.43;;
28910;SDS011;16028;42.642;23.310;2023-10-08T00:17:14;10.52;;;4.35;;
28910;SDS011;16028;42.642;23.310;2023-10-08T00:19:42;9.43;;;4.55;;
28910;SDS011;16028;42.642;23.310;2023-10-08T00:22:10;6.95;;;3.80;;
28910;SDS011;16028;42.642;23.310;2023-10-08T00:24:38;7.30;;;4.50;;
28910;SDS011;16028;42.642;23.310;2023-10-08T00:27:07;5.97;;;3.65;;
28910;SDS011;16028;42.642;23.310;2023-10-08T00:29:34;7.35;;;4.30;;
28910;SDS011;16028;42.642;23.310;2023-10-08T00:32:05;7.43;;;4.13;;
28910;SDS011;16028;42.642;23.310;2023-10-08T00:34:38;7.85;;;4.10;;
28910;SDS011;16028;42.642;23.310;2023-10-08T00:37:08;10.40;;;4.53;;
28910;SDS011;16028;42.642;23.310;2023-10-08T00:39:37;9.95;;;4.20;;
28910;SDS011;16028;42.642;23.310;2023-10-08T00:42:05;7.28;;;3.78;;
28910;SDS011;16028;42.642;23.310;2023-10-08T00:44:33;12.27;;;4.93;;
28910;SDS011;16028;42.642;23.310;2023-10-08T00:47:06;7.00;;;4.55;;
28910;SDS011;16028;42.642;23.310;2023-10-08T00:49:36;7.20;;;4.32;;
28910;SDS011;16028;42.642;23.310;2023-10-08T00:52:19;8.70;;;4.97;;
28910;SDS011;16028;42.642;23.310;2023-10-08T00:55:05;11.95;;;4.53;;
28910;SDS011;16028;42.642;23.310;2023-10-08T00:57:49;10.90;;;4.25;;
28910;SDS011;16028;42.642;23.310;2023-10-08T01:00:22;9.20;;;4.03;;
28910;SDS011;16028;42.642;23.310;2023-10-08T01:02:57;10.13;;;4.90;;
28910;SDS011;16028;42.642;23.310;2023-10-08T01:05:26;5.90;;;3.90;;
28910;SDS011;16028;42.642;23.310;2023-10-08T01:08:08;9.82;;;4.18;;
28910;SDS011;16028;42.642;23.310;2023-10-08T01:10:38;8.85;;;4.57;;
28910;SDS011;16028;42.642;23.310;2023-10-08T01:13:08;6.40;;;4.32;;
28910;SDS011;16028;42.642;23.310;2023-10-08T01:15:40;9.75;;;4.40;;
28910;SDS011;16028;42.642;23.310;2023-10-08T01:18:09;8.90;;;4.47;;
28910;SDS011;16028;42.642;23.310;2023-10-08T01:20:54;6.05;;;4.00;;
28910;SDS011;16028;42.642;23.310;2023-10-08T01:23:31;7.82;;;4.53;;
28910;SDS011;16028;42.642;23.310;2023-10-08T01:25:58;6.95;;;4.53;;
28910;SDS011;16028;42.642;23.310;2023-10-08T01:28:35;10.30;;;4.30;;
28910;SDS011;16028;42.642;23.310;2023-10-08T01:31:02;12.43;;;4.13;;
28910;SDS011;16028;42.642;23.310;2023-10-08T01:33:31;10.35;;;4.75;;
28910;SDS011;16028;42.642;23.310;2023-10-08T01:36:03;13.55;;;5.22;;
28910;SDS011;16028;42.642;23.310;2023-10-08T01:38:34;12.93;;;5.43;;
28910;SDS011;16028;42.642;23.310;2023-10-08T01:41:04;9.02;;;5.03;;
28910;SDS011;16028;42.642;23.310;2023-10-08T01:43:43;11.02;;;5.30;;
28910;SDS011;16028;42.642;23.310;2023-10-08T01:46:10;10.15;;;4.93;;
28910;SDS011;16028;42.642;23.310;2023-10-08T01:48:40;15.70;;;5.20;;
28910;SDS011;16028;42.642;23.310;2023-10-08T01:51:10;10.35;;;4.90;;
28910;SDS011;16028;42.642;23.310;2023-10-08T01:53:46;8.48;;;5.10;;
28910;SDS011;16028;42.642;23.310;2023-10-08T01:56:13;14.20;;;5.22;;
28910;SDS011;16028;42.642;23.310;2023-10-08T01:58:39;15.15;;;5.38;;
28910;SDS011;16028;42.642;23.310;2023-10-08T02:01:06;8.77;;;5.20;;
28910;SDS011;16028;42.642;23.310;2023-10-08T02:03:37;10.73;;;5.00;;
28910;SDS011;16028;42.642;23.310;2023-10-08T02:06:04;7.55;;;4.78;;
28910;SDS011;16028;42.642;23.310;2023-10-08T02:08:33;7.63;;;4.82;;
28910;SDS011;16028;42.642;23.310;2023-10-08T02:11:03;9.23;;;4.93;;
28910;SDS011;16028;42.642;23.310;2023-10-08T02:13:30;6.60;;;4.63;;
28910;SDS011;16028;42.642;23.310;2023-10-08T02:15:59;8.13;;;4.88;;
28910;SDS011;16028;42.642;23.310;2023-10-08T02:18:26;9.40;;;4.95;;
28910;SDS011;16028;42.642;23.310;2023-10-08T02:20:54;9.20;;;5.80;;
28910;SDS011;16028;42.642;23.310;2023-10-08T02:23:21;9.30;;;4.95;;
28910;SDS011;16028;42.642;23.310;2023-10-08T02:25:48;9.57;;;5.35;;
28910;SDS011;16028;42.642;23.310;2023-10-08T02:28:16;8.65;;;5.60;;
28910;SDS011;16028;42.642;23.310;2023-10-08T02:30:45;9.52;;;5.47;;
28910;SDS011;16028;42.642;23.310;2023-10-08T02:33:12;8.30;;;5.10;;
28910;SDS011;16028;42.642;23.310;2023-10-08T02:35:40;11.85;;;4.82;;
28910;SDS011;16028;42.642;23.310;2023-10-08T02:38:09;8.13;;;5.70;;
28910;SDS011;16028;42.642;23.310;2023-10-08T02:40:39;8.13;;;5.20;;
28910;SDS011;16028;42.642;23.310;2023-10-08T02:43:10;8.05;;;5.70;;
28910;SDS011;16028;42.642;23.310;2023-10-08T02:45:38;10.27;;;6.43;;
28910;SDS011;16028;42.642;23.310;2023-10-08T02:48:06;7.40;;;5.03;;
28910;SDS011;16028;42.642;23.310;2023-10-08T02:50:39;9.02;;;6.45;;
28910;SDS011;16028;42.642;23.310;2023-10-08T02:53:06;7.60;;;5.10;;
28910;SDS011;16028;42.642;23.310;2023-10-08T02:55:36;6.53;;;5.07;;
28910;SDS011;16028;42.642;23.310;2023-10-08T02:58:07;10.13;;;5.65;;
28910;SDS011;16028;42.642;23.310;2023-10-08T03:00:41;8.82;;;5.20;;
28910;SDS011;16028;42.642;23.310;2023-10-08T03:03:08;9.68;;;5.43;;
28910;SDS011;16028;42.642;23.310;2023-10-08T03:05:41;8.02;;;5.25;;
28910;SDS011;16028;42.642;23.310;2023-10-08T03:08:11;10.15;;;5.55;;
28910;SDS011;16028;42.642;23.310;2023-10-08T03:10:38;9.63;;;5.00;;
28910;SDS011;16028;42.642;23.310;2023-10-08T03:13:06;8.93;;;5.50;;
28910;SDS011;16028;42.642;23.310;2023-10-08T03:15:35;8.23;;;4.88;;
28910;SDS011;16028;42.642;23.310;2023-10-08T03:18:13;8.55;;;5.38;;
28910;SDS011;16028;42.642;23.310;2023-10-08T03:20:42;7.18;;;4.55;;
28910;SDS011;16028;42.642;23.310;2023-10-08T03:23:13;8.98;;;4.85;;
28910;SDS011;16028;42.642;23.310;2023-10-08T03:25:51;11.13;;;5.03;;
28910;SDS011;16028;42.642;23.310;2023-10-08T03:28:24;7.97;;;4.30;;
28910;SDS011;16028;42.642;23.310;2023-10-08T03:30:52;9.40;;;5.43;;
28910;SDS011;16028;42.642;23.310;2023-10-08T03:33:29;8.73;;;4.93;;
28910;SDS011;16028;42.642;23.310;2023-10-08T03:35:59;8.00;;;4.95;;
28910;SDS011;16028;42.642;23.310;2023-10-08T03:38:39;8.30;;;5.13;;
28910;SDS011;16028;42.642;23.310;2023-10-08T03:41:16;10.02;;;5.38;;
28910;SDS011;16028;42.642;23.310;2023-10-08T03:43:45;8.68;;;4.95;;
28910;SDS011;16028;42.642;23.310;2023-10-08T03:46:21;14.55;;;5.28;;
28910;SDS011;16028;42.642;23.310;2023-10-08T03:48:51;9.88;;;5.07;;
28910;SDS011;16028;42.642;23.310;2023-10-08T03:51:19;10.25;;;4.95;;
28910;SDS011;16028;42.642;23.310;2023-10-08T03:53:52;7.15;;;4.93;;
28910;SDS011;16028;42.642;23.310;2023-10-08T03:56:47;7.85;;;5.32;;
28910;SDS011;16028;42.642;23.310;2023-10-08T03:59:16;8.13;;;5.18;;
28910;SDS011;16028;42.642;23.310;2023-10-08T04:01:55;7.85;;;5.03;;
28910;SDS011;16028;42.642;23.310;2023-10-08T04:04:27;8.98;;;4.57;;
28910;SDS011;16028;42.642;23.310;2023-10-08T04:07:14;11.45;;;5.07;;
28910;SDS011;16028;42.642;23.310;2023-10-08T04:09:53;12.32;;;4.93;;
28910;SDS011;16028;42.642;23.310;2023-10-08T04:12:40;9.60;;;5.40;;
28910;SDS011;16028;42.642;23.310;2023-10-08T04:15:09;20.05;;;5.47;;
28910;SDS011;16028;42.642;23.310;2023-10-08T04:17:37;14.68;;;5.25;;
28910;SDS011;16028;42.642;23.310;2023-10-08T04:20:10;8.75;;;5.00;;
28910;SDS011;16028;42.642;23.310;2023-10-08T04:22:56;18.38;;;5.40;;
28910;SDS011;16028;42.642;23.310;2023-10-08T04:25:24;10.57;;;5.68;;
28910;SDS011;16028;42.642;23.310;2023-10-08T04:28:02;6.88;;;4.40;;
28910;SDS011;16028;42.642;23.310;2023-10-08T04:30:32;9.13;;;5.00;;
28910;SDS011;16028;42.642;23.310;2023-10-08T04:33:03;8.13;;;4.47;;
28910;SDS011;16028;42.642;23.310;2023-10-08T04:35:33;8.35;;;4.50;;
28910;SDS011;16028;42.642;23.310;2023-10-08T04:38:03;13.60;;;5.20;;
28910;SDS011;16028;42.642;23.310;2023-10-08T04:40:30;8.85;;;4.60;;
28910;SDS011;16028;42.642;23.310;2023-10-08T04:43:07;9.48;;;4.82;;
28910;SDS011;16028;42.642;23.310;2023-10-08T04:45:36;8.85;;;4.60;;
28910;SDS011;16028;42.642;23.310;2023-10-08T04:48:03;8.50;;;4.82;;
28910;SDS011;16028;42.642;23.310;2023-10-08T04:50:34;11.05;;;5.05;;
28910;SDS011;16028;42.642;23.310;2023-10-08T04:53:02;9.00;;;4.63;;
28910;SDS011;16028;42.642;23.310;2023-10-08T04:55:33;11.68;;;5.75;;
28910;SDS011;16028;42.642;23.310;2023-10-08T04:58:00;9.23;;;5.18;;
28910;SDS011;16028;42.642;23.310;2023-10-08T05:00:38;14.25;;;5.05;;
28910;SDS011;16028;42.642;23.310;2023-10-08T05:03:18;17.42;;;5.20;;
28910;SDS011;16028;42.642;23.310;2023-10-08T05:05:47;10.40;;;4.90;;
28910;SDS011;16028;42.642;23.310;2023-10-08T05:08:32;10.88;;;4.75;;
28910;SDS011;16028;42.642;23.310;2023-10-08T05:11:04;10.35;;;4.60;;
28910;SDS011;16028;42.642;23.310;2023-10-08T05:13:49;13.60;;;5.13;;
28910;SDS011;16028;42.642;23.310;2023-10-08T05:16:32;8.90;;;5.07;;
28910;SDS011;16028;42.642;23.310;2023-10-08T05:19:09;8.95;;;4.57;;
28910;SDS011;16028;42.642;23.310;2023-10-08T05:22:12;14.70;;;5.40;;
28910;SDS011;16028;42.642;23.310;2023-10-08T05:24:59;12.68;;;6.40;;
28910;SDS011;16028;42.642;23.310;2023-10-08T05:27:33;12.25;;;5.50;;
28910;SDS011;16028;42.642;23.310;2023-10-08T05:30:21;13.55;;;5.93;;
28910;SDS011;16028;42.642;23.310;2023-10-08T05:33:05;7.85;;;4.60;;
28910;SDS011;16028;42.642;23.310;2023-10-08T05:35:38;10.57;;;5.13;;
28910;SDS011;16028;42.642;23.310;2023-10-08T05:38:20;12.73;;;5.90;;
28910;SDS011;16028;42.642;23.310;2023-10-08T05:41:14;10.87;;;4.90;;
28910;SDS011;16028;42.642;23.310;2023-10-08T05:43:56;11.35;;;5.90;;
28910;SDS011;16028;42.642;23.310;2023-10-08T05:46:36;11.50;;;5.10;;
28910;SDS011;16028;42.642;23.310;2023-10-08T05:49:13;12.90;;;5.82;;
28910;SDS011;16028;42.642;23.310;2023-10-08T05:52:03;13.63;;;5.95;;
28910;SDS011;16028;42.642;23.310;2023-10-08T05:54:47;12.75;;;6.40;;
28910;SDS011;16028;42.642;23.310;2023-10-08T05:57:39;11.25;;;5.72;;
28910;SDS011;16028;42.642;23.310;2023-10-08T06:00:11;12.65;;;6.20;;
28910;SDS011;16028;42.642;23.310;2023-10-08T06:03:03;10.05;;;5.25;;
28910;SDS011;16028;42.642;23.310;2023-10-08T06:05:38;13.43;;;5.68;;
28910;SDS011;16028;42.642;23.310;2023-10-08T06:08:12;10.18;;;5.50;;
28910;SDS011;16028;42.642;23.310;2023-10-08T06:10:40;12.80;;;5.82;;
28910;SDS011;16028;42.642;23.310;2023-10-08T06:13:21;8.30;;;5.03;;
28910;SDS011;16028;42.642;23.310;2023-10-08T06:15:56;14.77;;;5.88;;
28910;SDS011;16028;42.642;23.310;2023-10-08T06:18:33;14.20;;;6.03;;
28910;SDS011;16028;42.642;23.310;2023-10-08T06:21:01;19.48;;;6.00;;
28910;SDS011;16028;42.642;23.310;2023-10-08T06:26:00;14.25;;;6.28;;
28910;SDS011;16028;42.642;23.310;2023-10-08T06:28:40;24.50;;;7.75;;
28910;SDS011;16028;42.642;23.310;2023-10-08T06:31:09;14.65;;;5.38;;
28910;SDS011;16028;42.642;23.310;2023-10-08T06:33:41;13.20;;;5.68;;
28910;SDS011;16028;42.642;23.310;2023-10-08T06:36:10;15.38;;;6.53;;
28910;SDS011;16028;42.642;23.310;2023-10-08T06:38:41;15.52;;;7.78;;
28910;SDS011;16028;42.642;23.310;2023-10-08T06:41:08;19.52;;;7.90;;
28910;SDS011;16028;42.642;23.310;2023-10-08T06:43:40;13.70;;;7.10;;
28910;SDS011;16028;42.642;23.310;2023-10-08T06:46:10;12.63;;;6.65;;
28910;SDS011;16028;42.642;23.310;2023-10-08T06:48:38;11.68;;;6.63;;
28910;SDS011;16028;42.642;23.310;2023-10-08T06:51:07;13.75;;;7.10;;
28910;SDS011;16028;42.642;23.310;2023-10-08T06:53:39;18.35;;;6.28;;
28910;SDS011;16028;42.642;23.310;2023-10-08T06:56:06;18.60;;;6.13;;
28910;SDS011;16028;42.642;23.310;2023-10-08T06:58:36;17.70;;;6.80;;
28910;SDS011;16028;42.642;23.310;2023-10-08T07:01:06;14.50;;;6.50;;
28910;SDS011;16028;42.642;23.310;2023-10-08T07:03:34;23.10;;;7.10;;
28910;SDS011;16028;42.642;23.310;2023-10-08T07:06:03;21.02;;;6.78;;
28910;SDS011;16028;42.642;23.310;2023-10-08T07:08:43;11.45;;;5.53;;
28910;SDS011;16028;42.642;23.310;2023-10-08T07:11:12;16.27;;;6.72;;
28910;SDS011;16028;42.642;23.310;2023-10-08T07:13:39;24.38;;;7.03;;
28910;SDS011;16028;42.642;23.310;2023-10-08T07:16:07;12.48;;;6.32;;
28910;SDS011;16028;42.642;23.310;2023-10-08T07:18:36;15.23;;;6.05;;
28910;SDS011;16028;42.642;23.310;2023-10-08T07:21:03;13.43;;;6.45;;
28910;SDS011;16028;42.642;23.310;2023-10-08T07:23:37;15.73;;;6.63;;
28910;SDS011;16028;42.642;23.310;2023-10-08T07:26:22;14.68;;;6.60;;
28910;SDS011;16028;42.642;23.310;2023-10-08T07:28:50;14.02;;;6.68;;
28910;SDS011;16028;42.642;23.310;2023-10-08T07:31:18;20.00;;;6.43;;
28910;SDS011;16028;42.642;23.310;2023-10-08T07:33:47;16.50;;;5.82;;
28910;SDS011;16028;42.642;23.310;2023-10-08T07:36:21;7.68;;;4.47;;
28910;SDS011;16028;42.642;23.310;2023-10-08T07:38:48;7.90;;;3.65;;
28910;SDS011;16028;42.642;23.310;2023-10-08T07:41:15;6.93;;;3.65;;
28910;SDS011;16028;42.642;23.310;2023-10-08T07:43:46;4.82;;;2.88;;
28910;SDS011;16028;42.642;23.310;2023-10-08T07:46:20;8.15;;;3.83;;
28910;SDS011;16028;42.642;23.310;2023-10-08T07:48:47;7.07;;;3.63;;
28910;SDS011;16028;42.642;23.310;2023-10-08T07:51:15;9.57;;;3.63;;
28910;SDS011;16028;42.642;23.310;2023-10-08T07:53:47;5.75;;;3.30;;
28910;SDS011;16028;42.642;23.310;2023-10-08T07:56:13;9.25;;;3.58;;
28910;SDS011;16028;42.642;23.310;2023-10-08T07:58:43;5.05;;;3.17;;
28910;SDS011;16028;42.642;23.310;2023-10-08T08:01:11;7.55;;;3.65;;
28910;SDS011;16028;42.642;23.310;2023-10-08T08:03:39;11.32;;;3.15;;
28910;SDS011;16028;42.642;23.310;2023-10-08T08:06:08;5.57;;;3.42;;
28910;SDS011;16028;42.642;23.310;2023-10-08T08:08:35;9.32;;;3.78;;
28910;SDS011;16028;42.642;23.310;2023-10-08T08:11:03;5.97;;;3.72;;
28910;SDS011;16028;42.642;23.310;2023-10-08T08:13:32;7.55;;;3.83;;
28910;SDS011;16028;42.642;23.310;2023-10-08T08:15:59;7.60;;;4.35;;
28910;SDS011;16028;42.642;23.310;2023-10-08T08:18:37;14.27;;;4.35;;
28910;SDS011;16028;42.642;23.310;2023-10-08T08:21:08;6.55;;;4.20;;
28910;SDS011;16028;42.642;23.310;2023-10-08T08:23:39;5.18;;;3.85;;
28910;SDS011;16028;42.642;23.310;2023-10-08T08:26:12;8.20;;;4.25;;
28910;SDS011;16028;42.642;23.310;2023-10-08T08:28:51;7.88;;;4.50;;
28910;SDS011;16028;42.642;23.310;2023-10-08T08:31:20;11.52;;;4.20;;
28910;SDS011;16028;42.642;23.310;2023-10-08T08:33:48;10.50;;;4.32;;
28910;SDS011;16028;42.642;23.310;2023-10-08T08:36:28;9.52;;;4.95;;
28910;SDS011;16028;42.642;23.310;2023-10-08T08:38:57;9.52;;;4.50;;
28910;SDS011;16028;42.642;23.310;2023-10-08T08:41:23;10.13;;;3.75;;
28910;SDS011;16028;42.642;23.310;2023-10-08T08:43:51;8.90;;;4.30;;
28910;SDS011;16028;42.642;23.310;2023-10-08T08:46:30;9.32;;;3.92;;
28910;SDS011;16028;42.642;23.310;2023-10-08T08:49:02;5.68;;;3.72;;
28910;SDS011;16028;42.642;23.310;2023-10-08T08:51:31;9.30;;;4.10;;
28910;SDS011;16028;42.642;23.310;2023-10-08T08:53:58;7.60;;;4.18;;
28910;SDS011;16028;42.642;23.310;2023-10-08T08:56:26;7.72;;;4.18;;
28910;SDS011;16028;42.642;23.310;2023-10-08T08:58:54;6.78;;;4.50;;
28910;SDS011;16028;42.642;23.310;2023-10-08T09:01:23;7.95;;;4.75;;
28910;SDS011;16028;42.642;23.310;2023-10-08T09:03:50;10.18;;;4.78;;
28910;SDS011;16028;42.642;23.310;2023-10-08T09:06:19;7.30;;;4.55;;
28910;SDS011;16028;42.642;23.310;2023-10-08T09:08:45;7.90;;;4.38;;
28910;SDS011;16028;42.642;23.310;2023-10-08T09:11:15;8.50;;;4.63;;
28910;SDS011;16028;42.642;23.310;2023-10-08T09:13:42;6.32;;;4.30;;
28910;SDS011;16028;42.642;23.310;2023-10-08T09:16:11;8.93;;;4.55;;
28910;SDS011;16028;42.642;23.310;2023-10-08T09:18:40;8.85;;;4.53;;
28910;SDS011;16028;42.642;23.310;2023-10-08T09:21:10;7.85;;;4.70;;
28910;SDS011;16028;42.642;23.310;2023-10-08T09:23:42;12.90;;;4.63;;
28910;SDS011;16028;42.642;23.310;2023-10-08T09:26:12;7.28;;;4.45;;
28910;SDS011;16028;42.642;23.310;2023-10-08T09:28:40;7.32;;;4.28;;
28910;SDS011;16028;42.642;23.310;2023-10-08T09:31:11;8.43;;;4.82;;
28910;SDS011;16028;42.642;23.310;2023-10-08T09:33:39;8.50;;;4.55;;
28910;SDS011;16028;42.642;23.310;2023-10-08T09:36:06;6.22;;;4.00;;
28910;SDS011;16028;42.642;23.310;2023-10-08T09:38:36;6.90;;;4.47;;
28910;SDS011;16028;42.642;23.310;2023-10-08T09:41:04;8.82;;;4.25;;
28910;SDS011;16028;42.642;23.310;2023-10-08T09:43:33;8.90;;;4.22;;
28910;SDS011;16028;42.642;23.310;2023-10-08T09:46:03;9.73;;;4.53;;
28910;SDS011;16028;42.642;23.310;2023-10-08T09:48:36;6.53;;;4.03;;
28910;SDS011;16028;42.642;23.310;2023-10-08T09:51:05;9.88;;;4.65;;
28910;SDS011;16028;42.642;23.310;2023-10-08T09:53:36;7.30;;;4.32;;
28910;SDS011;16028;42.642;23.310;2023-10-08T09:56:13;8.13;;;4.57;;
28910;SDS011;16028;42.642;23.310;2023-10-08T09:58:42;10.82;;;4.50;;
28910;SDS011;16028;42.642;23.310;2023-10-08T10:01:09;10.45;;;4.57;;
28910;SDS011;16028;42.642;23.310;2023-10-08T10:03:37;14.75;;;5.07;;
28910;SDS011;16028;42.642;23.310;2023-10-08T10:06:11;10.68;;;4.25;;
28910;SDS011;16028;42.642;23.310;2023-10-08T10:08:40;18.25;;;4.00;;
28910;SDS011;16028;42.642;23.310;2023-10-08T10:11:08;7.50;;;4.10;;
28910;SDS011;16028;42.642;23.310;2023-10-08T10:13:40;7.13;;;4.13;;
28910;SDS011;16028;42.642;23.310;2023-10-08T10:16:09;11.95;;;4.15;;
28910;SDS011;16028;42.642;23.310;2023-10-08T10:18:38;8.70;;;4.00;;
28910;SDS011;16028;42.642;23.310;2023-10-08T10:23:58;8.82;;;4.05;;
28910;SDS011;16028;42.642;23.310;2023-10-08T10:26:26;7.97;;;4.15;;
28910;SDS011;16028;42.642;23.310;2023-10-08T10:31:51;7.32;;;4.28;;
28910;SDS011;16028;42.642;23.310;2023-10-08T10:34:20;8.02;;;4.05;;
28910;SDS011;16028;42.642;23.310;2023-10-08T10:36:50;6.90;;;4.00;;
28910;SDS011;16028;42.642;23.310;2023-10-08T10:39:21;5.90;;;3.75;;
28910;SDS011;16028;42.642;23.310;2023-10-08T10:41:53;6.93;;;3.72;;
28910;SDS011;16028;42.642;23.310;2023-10-08T10:44:24;6.90;;;3.75;;
28910;SDS011;16028;42.642;23.310;2023-10-08T10:46:51;14.85;;;3.70;;
28910;SDS011;16028;42.642;23.310;2023-10-08T10:49:38;14.65;;;3.30;;
28910;SDS011;16028;42.642;23.310;2023-10-08T10:52:13;8.38;;;3.28;;
28910;SDS011;16028;42.642;23.310;2023-10-08T10:54:43;10.20;;;3.47;;
28910;SDS011;16028;42.642;23.310;2023-10-08T10:57:24;10.10;;;3.60;;
28910;SDS011;16028;42.642;23.310;2023-10-08T11:00:01;8.95;;;4.00;;
28910;SDS011;16028;42.642;23.310;2023-10-08T11:02:43;6.95;;;3.80;;
28910;SDS011;16028;42.642;23.310;2023-10-08T11:05:13;6.55;;;3.60;;
28910;SDS011;16028;42.642;23.310;2023-10-08T11:07:45;8.07;;;3.83;;
28910;SDS011;16028;42.642;23.310;2023-10-08T11:10:13;5.22;;;3.47;;
28910;SDS011;16028;42.642;23.310;2023-10-08T11:12:41;10.35;;;3.72;;
28910;SDS011;16028;42.642;23.310;2023-10-08T11:15:13;7.15;;;3.47;;
28910;SDS011;16028;42.642;23.310;2023-10-08T11:17:42;4.97;;;3.42;;
28910;SDS011;16028;42.642;23.310;2023-10-08T11:20:24;11.73;;;4.07;;
28910;SDS011;16028;42.642;23.310;2023-10-08T11:22:51;10.13;;;3.63;;
28910;SDS011;16028;42.642;23.310;2023-10-08T11:25:20;5.72;;;2.88;;
28910;SDS011;16028;42.642;23.310;2023-10-08T11:27:52;8.57;;;3.60;;
28910;SDS011;16028;42.642;23.310;2023-10-08T11:30:28;7.25;;;3.17;;
28910;SDS011;16028;42.642;23.310;2023-10-08T11:32:57;6.55;;;3.28;;
28910;SDS011;16028;42.642;23.310;2023-10-08T11:35:24;7.22;;;3.90;;
28910;SDS011;16028;42.642;23.310;2023-10-08T11:37:52;9.13;;;3.60;;
28910;SDS011;16028;42.642;23.310;2023-10-08T11:40:26;18.02;;;3.85;;
28910;SDS011;16028;42.642;23.310;2023-10-08T11:42:55;14.68;;;3.55;;
28910;SDS011;16028;42.642;23.310;2023-10-08T11:45:24;9.43;;;3.50;;
28910;SDS011;16028;42.642;23.310;2023-10-08T11:47:53;9.90;;;3.90;;
28910;SDS011;16028;42.642;23.310;2023-10-08T11:50:28;12.32;;;3.70;;
28910;SDS011;16028;42.642;23.310;2023-10-08T11:53:00;7.65;;;3.50;;
28910;SDS011;16028;42.642;23.310;2023-10-08T11:55:32;9.73;;;4.00;;
28910;SDS011;16028;42.642;23.310;2023-10-08T11:58:01;10.98;;;4.22;;
28910;SDS011;16028;42.642;23.310;2023-10-08T12:00:35;11.75;;;3.53;;
28910;SDS011;16028;42.642;23.310;2023-10-08T12:03:10;10.43;;;3.72;;
28910;SDS011;16028;42.642;23.310;2023-10-08T12:05:37;11.32;;;4.20;;
28910;SDS011;16028;42.642;23.310;2023-10-08T12:08:12;14.43;;;3.47;;
28910;SDS011;16028;42.642;23.310;2023-10-08T12:10:41;12.98;;;3.97;;
28910;SDS011;16028;42.642;23.310;2023-10-08T12:13:08;9.57;;;3.58;;
28910;SDS011;16028;42.642;23.310;2023-10-08T12:15:37;10.75;;;3.72;;
28910;SDS011;16028;42.642;23.310;2023-10-08T12:18:06;14.60;;;3.97;;
28910;SDS011;16028;42.642;23.310;2023-10-08T12:23:11;8.45;;;3.70;;
28910;SDS011;16028;42.642;23.310;2023-10-08T12:25:48;9.20;;;3.72;;
28910;SDS011;16028;42.642;23.310;2023-10-08T12:28:16;6.13;;;3.83;;
28910;SDS011;16028;42.642;23.310;2023-10-08T12:30:44;8.30;;;3.58;;
28910;SDS011;16028;42.642;23.310;2023-10-08T12:33:11;7.78;;;3.50;;
28910;SDS011;16028;42.642;23.310;2023-10-08T12:35:42;7.15;;;3.58;;
28910;SDS011;16028;42.642;23.310;2023-10-08T12:38:09;12.68;;;4.22;;
28910;SDS011;16028;42.642;23.310;2023-10-08T12:40:40;8.40;;;3.85;;
28910;SDS011;16028;42.642;23.310;2023-10-08T12:43:17;8.45;;;3.67;;
28910;SDS011;16028;42.642;23.310;2023-10-08T12:45:46;9.68;;;4.15;;
28910;SDS011;16028;42.642;23.310;2023-10-08T12:48:20;15.40;;;4.38;;
28910;SDS011;16028;42.642;23.310;2023-10-08T12:50:49;14.15;;;3.65;;
28910;SDS011;16028;42.642;23.310;2023-10-08T12:53:22;12.60;;;4.22;;
28910;SDS011;16028;42.642;23.310;2023-10-08T12:55:58;13.30;;;3.75;;
28910;SDS011;16028;42.642;23.310;2023-10-08T12:58:30;12.60;;;3.90;;
28910;SDS011;16028;42.642;23.310;2023-10-08T13:01:03;19.95;;;4.38;;
28910;SDS011;16028;42.642;23.310;2023-10-08T13:03:32;12.73;;;4.68;;
28910;SDS011;16028;42.642;23.310;2023-10-08T13:06:07;9.23;;;3.70;;
28910;SDS011;16028;42.642;23.310;2023-10-08T13:08:40;14.25;;;4.07;;
28910;SDS011;16028;42.642;23.310;2023-10-08T13:11:07;13.25;;;4.30;;
28910;SDS011;16028;42.642;23.310;2023-10-08T13:13:34;14.30;;;3.35;;
28910;SDS011;16028;42.642;23.310;2023-10-08T13:16:02;14.25;;;4.15;;
28910;SDS011;16028;42.642;23.310;2023-10-08T13:18:32;13.02;;;4.32;;
28910;SDS011;16028;42.642;23.310;2023-10-08T13:21:02;16.70;;;3.78;;
28910;SDS011;16028;42.642;23.310;2023-10-08T13:23:31;9.32;;;3.63;;
28910;SDS011;16028;42.642;23.310;2023-10-08T13:26:00;12.15;;;3.92;;
28910;SDS011;16028;42.642;23.310;2023-10-08T13:28:29;11.93;;;3.95;;
28910;SDS011;16028;42.642;23.310;2023-10-08T13:30:59;8.95;;;3.85;;
28910;SDS011;16028;42.642;23.310;2023-10-08T13:33:26;9.73;;;3.70;;
28910;SDS011;16028;42.642;23.310;2023-10-08T13:35:53;10.75;;;3.75;;
28910;SDS011;16028;42.642;23.310;2023-10-08T13:38:20;11.13;;;3.38;;
28910;SDS011;16028;42.642;23.310;2023-10-08T13:40:49;10.73;;;3.60;;
28910;SDS011;16028;42.642;23.310;2023-10-08T13:43:29;10.55;;;3.97;;
28910;SDS011;16028;42.642;23.310;2023-10-08T13:46:03;9.00;;;3.65;;
28910;SDS011;16028;42.642;23.310;2023-10-08T13:48:32;9.18;;;3.75;;
28910;SDS011;16028;42.642;23.310;2023-10-08T13:51:01;13.35;;;3.92;;
28910;SDS011;16028;42.642;23.310;2023-10-08T13:53:29;10.25;;;3.47;;
28910;SDS011;16028;42.642;23.310;2023-10-08T13:55:59;12.40;;;3.45;;
28910;SDS011;16028;42.642;23.310;2023-10-08T13:58:27;12.63;;;3.10;;
28910;SDS011;16028;42.642;23.310;2023-10-08T14:00:55;12.15;;;3.78;;
28910;SDS011;16028;42.642;23.310;2023-10-08T14:03:25;13.75;;;3.38;;
28910;SDS011;16028;42.642;23.310;2023-10-08T14:05:52;8.73;;;3.40;;
28910;SDS011;16028;42.642;23.310;2023-10-08T14:08:19;10.70;;;4.07;;
28910;SDS011;16028;42.642;23.310;2023-10-08T14:10:47;13.55;;;3.47;;
28910;SDS011;16028;42.642;23.310;2023-10-08T14:13:16;15.48;;;3.80;;
28910;SDS011;16028;42.642;23.310;2023-10-08T14:15:46;13.30;;;3.75;;
28910;SDS011;16028;42.642;23.310;2023-10-08T14:18:21;11.93;;;3.75;;
28910;SDS011;16028;42.642;23.310;2023-10-08T14:20:53;11.30;;;3.40;;
28910;SDS011;16028;42.642;23.310;2023-10-08T14:23:20;14.07;;;4.18;;
28910;SDS011;16028;42.642;23.310;2023-10-08T14:25:51;15.50;;;4.05;;
28910;SDS011;16028;42.642;23.310;2023-10-08T14:28:30;11.50;;;4.45;;
28910;SDS011;16028;42.642;23.310;2023-10-08T14:31:07;12.60;;;4.20;;
28910;SDS011;16028;42.642;23.310;2023-10-08T14:33:40;16.13;;;3.65;;
28910;SDS011;16028;42.642;23.310;2023-10-08T14:36:09;11.88;;;3.85;;
28910;SDS011;16028;42.642;23.310;2023-10-08T14:38:53;26.58;;;3.63;;
28910;SDS011;16028;42.642;23.310;2023-10-08T14:41:38;21.45;;;4.15;;
28910;SDS011;16028;42.642;23.310;2023-10-08T14:44:23;14.70;;;3.88;;
28910;SDS011;16028;42.642;23.310;2023-10-08T14:46:50;20.92;;;4.35;;
28910;SDS011;16028;42.642;23.310;2023-10-08T14:49:19;19.02;;;3.67;;
28910;SDS011;16028;42.642;23.310;2023-10-08T14:51:47;12.77;;;3.78;;
28910;SDS011;16028;42.642;23.310;2023-10-08T14:54:14;13.63;;;3.28;;
28910;SDS011;16028;42.642;23.310;2023-10-08T14:56:41;15.40;;;4.90;;
28910;SDS011;16028;42.642;23.310;2023-10-08T14:59:08;16.55;;;3.85;;
28910;SDS011;16028;42.642;23.310;2023-10-08T15:01:37;9.68;;;3.72;;
28910;SDS011;16028;42.642;23.310;2023-10-08T15:04:04;17.42;;;4.43;;
28910;SDS011;16028;42.642;23.310;2023-10-08T15:06:31;11.00;;;3.75;;